createdAt,value
2018-02-08T00:05:31.656Z,57.6
2018-02-08T00:20:31.703Z,58.5
2018-02-08T00:35:31.534Z,63.4
2018-02-08T00:50:31.799Z,66.1
2018-02-08T01:10:31.947Z,66.7
2018-02-08T01:25:31.930Z,71
2018-02-08T01:40:31.903Z,50.5
2018-02-08T01:55:31.901Z,70.3
2018-02-08T02:15:32.127Z,62.3
2018-02-08T02:30:32.150Z,61.8
2018-02-08T02:45:32.068Z,55.3
2018-02-08T03:05:33.525Z,74
2018-02-08T03:20:33.763Z,65.5
2018-02-08T03:35:33.862Z,63.5
2018-02-08T03:50:33.671Z,76.1
2018-02-08T04:10:33.893Z,76.7
2018-02-08T04:25:33.722Z,66
2018-02-08T04:40:33.912Z,65.3
2018-02-08T05:00:33.737Z,66.8
2018-02-08T05:15:33.992Z,74
2018-02-08T05:30:33.988Z,63.4
2018-02-08T05:45:34.220Z,82.6
2018-02-08T06:20:34.377Z,72.4
2018-02-08T06:35:34.136Z,79.6
2018-02-08T07:10:34.149Z,72.4
2018-02-08T07:25:34.165Z,79.5
2018-02-08T07:40:34.397Z,78.5
2018-02-08T08:00:43.592Z,77.9
2018-02-08T08:15:38.623Z,76.7
2018-02-08T08:30:38.807Z,84.4
2018-02-08T08:50:38.635Z,73.8
2018-02-08T09:20:38.666Z,71.7
2018-02-08T09:35:38.750Z,67.9
2018-02-08T09:55:38.539Z,62.3
2018-02-08T10:10:38.762Z,61.7
2018-02-08T10:25:38.622Z,60.6
2018-02-08T10:45:38.631Z,53.6
2018-02-08T11:00:38.835Z,55.1
2018-02-08T11:15:38.834Z,47.5
2018-02-08T11:30:38.796Z,56.2
2018-02-08T11:50:38.660Z,55.6
2018-02-08T12:05:38.821Z,53.2
2018-02-08T12:20:39.055Z,58.3
2018-02-08T12:40:38.865Z,58.8
2018-02-08T12:55:48.783Z,54.3
2018-02-08T13:10:43.541Z,59.4
2018-02-08T13:25:43.701Z,54.2
2018-02-08T13:45:43.714Z,57.5
2018-02-08T14:00:43.704Z,59.4
2018-02-08T14:15:43.586Z,58.9
2018-02-08T14:35:44.027Z,55.7
2018-02-08T14:50:44.054Z,60.6
2018-02-08T15:05:44.039Z,58.9
2018-02-08T15:20:44.096Z,64
2018-02-08T15:40:43.908Z,76.8
2018-02-08T15:55:43.901Z,68.1
2018-02-08T16:10:44.070Z,70
2018-02-08T16:30:44.105Z,70.1
2018-02-08T16:45:44.094Z,71.3
2018-02-08T17:00:44.122Z,76.7
2018-02-08T17:15:44.189Z,81.3
2018-02-08T17:35:44.257Z,95.4
2018-02-08T17:50:52.299Z,116.9
2018-02-08T18:05:47.206Z,83.4
2018-02-08T18:25:47.378Z,73.2
2018-02-08T18:40:47.232Z,78.8
2018-02-08T18:55:47.226Z,90.6
2018-02-08T19:10:47.291Z,102.2
2018-02-08T19:30:47.271Z,97.9
2018-02-08T19:45:47.428Z,83.4
2018-02-08T20:00:47.462Z,84.3
2018-02-08T20:20:47.605Z,74
2018-02-08T21:25:47.508Z,83.6
2018-02-08T21:40:47.672Z,79.7
2018-02-08T21:55:47.649Z,79.7
2018-02-08T22:10:48.999Z,85.5
2018-02-08T22:30:47.687Z,87.9
2018-02-08T22:45:52.202Z,71.8
2018-02-08T23:00:52.258Z,75.8
2018-02-08T23:20:52.292Z,69.6
2018-02-08T23:35:52.403Z,76.4
2018-02-08T23:50:52.697Z,89.8
